sensor_id;sensor_type;location;lat;lon;timestamp;P1;durP1;ratioP1;P2;durP2;ratioP2
3274;SDS011;1649;53.672;10.064;2023-02-26T00:01:22;5.00;;;2.20;;
3274;SDS011;1649;53.672;10.064;2023-02-26T00:03:50;4.43;;;2.10;;
3274;SDS011;1649;53.672;10.064;2023-02-26T00:06:16;6.03;;;2.13;;
3274;SDS011;1649;53.672;10.064;2023-02-26T00:08:43;4.70;;;2.10;;
3274;SDS011;1649;53.672;10.064;2023-02-26T00:11:08;5.00;;;2.27;;
3274;SDS011;1649;53.672;10.064;2023-02-26T00:13:35;4.30;;;2.08;;
3274;SDS011;1649;53.672;10.064;2023-02-26T00:16:02;3.90;;;2.15;;
3274;SDS011;1649;53.672;10.064;2023-02-26T00:18:34;7.82;;;2.40;;
3274;SDS011;1649;53.672;10.064;2023-02-26T00:21:00;5.20;;;2.10;;
3274;SDS011;1649;53.672;10.064;2023-02-26T00:23:26;4.20;;;2.07;;
3274;SDS011;1649;53.672;10.064;2023-02-26T00:25:51;4.67;;;2.07;;
3274;SDS011;1649;53.672;10.064;2023-02-26T00:28:17;8.33;;;1.90;;
3274;SDS011;1649;53.672;10.064;2023-02-26T00:30:43;5.70;;;2.00;;
3274;SDS011;1649;53.672;10.064;2023-02-26T00:33:09;5.53;;;1.73;;
3274;SDS011;1649;53.672;10.064;2023-02-26T00:35:34;8.70;;;2.20;;
3274;SDS011;1649;53.672;10.064;2023-02-26T00:38:05;5.80;;;2.10;;
3274;SDS011;1649;53.672;10.064;2023-02-26T00:40:38;10.13;;;2.92;;
3274;SDS011;1649;53.672;10.064;2023-02-26T00:43:08;5.13;;;2.53;;
3274;SDS011;1649;53.672;10.064;2023-02-26T00:45:38;4.95;;;2.38;;
3274;SDS011;1649;53.672;10.064;2023-02-26T00:48:21;4.60;;;1.98;;
3274;SDS011;1649;53.672;10.064;2023-02-26T00:51:16;4.45;;;1.95;;
3274;SDS011;1649;53.672;10.064;2023-02-26T00:54:05;3.30;;;1.70;;
3274;SDS011;1649;53.672;10.064;2023-02-26T00:56:37;7.05;;;2.10;;
3274;SDS011;1649;53.672;10.064;2023-02-26T00:59:02;5.93;;;2.30;;
3274;SDS011;1649;53.672;10.064;2023-02-26T01:01:28;4.90;;;2.13;;
3274;SDS011;1649;53.672;10.064;2023-02-26T01:03:54;3.93;;;2.07;;
3274;SDS011;1649;53.672;10.064;2023-02-26T01:06:20;4.45;;;2.20;;
3274;SDS011;1649;53.672;10.064;2023-02-26T01:09:02;10.18;;;5.45;;
3274;SDS011;1649;53.672;10.064;2023-02-26T01:11:34;10.77;;;7.38;;
3274;SDS011;1649;53.672;10.064;2023-02-26T01:14:02;8.88;;;4.97;;
3274;SDS011;1649;53.672;10.064;2023-02-26T01:16:29;13.52;;;6.60;;
3274;SDS011;1649;53.672;10.064;2023-02-26T01:19:04;21.80;;;8.00;;
3274;SDS011;1649;53.672;10.064;2023-02-26T01:21:38;14.48;;;6.97;;
3274;SDS011;1649;53.672;10.064;2023-02-26T01:24:08;7.88;;;3.97;;
3274;SDS011;1649;53.672;10.064;2023-02-26T01:26:38;6.05;;;2.63;;
3274;SDS011;1649;53.672;10.064;2023-02-26T01:29:03;5.60;;;3.17;;
3274;SDS011;1649;53.672;10.064;2023-02-26T01:31:32;6.20;;;3.20;;
3274;SDS011;1649;53.672;10.064;2023-02-26T01:34:45;6.70;;;2.72;;
3274;SDS011;1649;53.672;10.064;2023-02-26T01:37:01;7.45;;;2.03;;
3274;SDS011;1649;53.672;10.064;2023-02-26T01:39:46;3.83;;;1.95;;
3274;SDS011;1649;53.672;10.064;2023-02-26T01:42:40;6.25;;;2.10;;
3274;SDS011;1649;53.672;10.064;2023-02-26T01:45:12;6.80;;;2.30;;
3274;SDS011;1649;53.672;10.064;2023-02-26T01:47:47;5.45;;;2.40;;
3274;SDS011;1649;53.672;10.064;2023-02-26T01:50:35;6.30;;;2.88;;
3274;SDS011;1649;53.672;10.064;2023-02-26T01:55:58;6.90;;;2.33;;
3274;SDS011;1649;53.672;10.064;2023-02-26T01:58:31;7.63;;;2.70;;
3274;SDS011;1649;53.672;10.064;2023-02-26T02:00:58;5.70;;;2.47;;
3274;SDS011;1649;53.672;10.064;2023-02-26T02:03:25;9.25;;;2.97;;
3274;SDS011;1649;53.672;10.064;2023-02-26T02:05:54;9.43;;;2.80;;
3274;SDS011;1649;53.672;10.064;2023-02-26T02:08:24;9.35;;;2.78;;
3274;SDS011;1649;53.672;10.064;2023-02-26T02:10:50;5.17;;;2.40;;
3274;SDS011;1649;53.672;10.064;2023-02-26T02:16:11;6.82;;;3.35;;
3274;SDS011;1649;53.672;10.064;2023-02-26T02:18:46;7.15;;;3.25;;
3274;SDS011;1649;53.672;10.064;2023-02-26T02:24:34;6.28;;;3.30;;
3274;SDS011;1649;53.672;10.064;2023-02-26T02:27:21;7.85;;;3.10;;
3274;SDS011;1649;53.672;10.064;2023-02-26T02:30:16;7.65;;;2.85;;
3274;SDS011;1649;53.672;10.064;2023-02-26T02:33:02;5.20;;;3.10;;
3274;SDS011;1649;53.672;10.064;2023-02-26T02:35:37;5.45;;;2.85;;
3274;SDS011;1649;53.672;10.064;2023-02-26T02:38:06;5.25;;;3.20;;
3274;SDS011;1649;53.672;10.064;2023-02-26T02:40:38;5.68;;;2.50;;
3274;SDS011;1649;53.672;10.064;2023-02-26T02:43:12;6.82;;;2.97;;
3274;SDS011;1649;53.672;10.064;2023-02-26T02:48:16;6.50;;;1.90;;
3274;SDS011;1649;53.672;10.064;2023-02-26T02:50:45;4.70;;;2.40;;
3274;SDS011;1649;53.672;10.064;2023-02-26T02:53:32;5.80;;;2.33;;
3274;SDS011;1649;53.672;10.064;2023-02-26T02:57:24;5.70;;;2.13;;
3274;SDS011;1649;53.672;10.064;2023-02-26T02:59:23;5.03;;;2.78;;
3274;SDS011;1649;53.672;10.064;2023-02-26T03:02:05;6.93;;;2.85;;
3274;SDS011;1649;53.672;10.064;2023-02-26T03:04:35;6.60;;;2.40;;
3274;SDS011;1649;53.672;10.064;2023-02-26T03:07:00;7.37;;;2.00;;
3274;SDS011;1649;53.672;10.064;2023-02-26T03:09:26;5.50;;;2.43;;
3274;SDS011;1649;53.672;10.064;2023-02-26T03:11:51;5.83;;;2.60;;
3274;SDS011;1649;53.672;10.064;2023-02-26T03:14:17;3.93;;;2.27;;
3274;SDS011;1649;53.672;10.064;2023-02-26T03:16:48;5.07;;;2.00;;
3274;SDS011;1649;53.672;10.064;2023-02-26T03:19:21;4.45;;;2.00;;
3274;SDS011;1649;53.672;10.064;2023-02-26T03:27:45;5.53;;;2.33;;
3274;SDS011;1649;53.672;10.064;2023-02-26T03:30:36;7.88;;;2.70;;
3274;SDS011;1649;53.672;10.064;2023-02-26T03:33:12;5.47;;;2.00;;
3274;SDS011;1649;53.672;10.064;2023-02-26T03:38:23;6.10;;;2.72;;
3274;SDS011;1649;53.672;10.064;2023-02-26T03:40:58;5.82;;;2.53;;
3274;SDS011;1649;53.672;10.064;2023-02-26T03:43:30;8.48;;;2.80;;
3274;SDS011;1649;53.672;10.064;2023-02-26T03:46:04;7.20;;;2.22;;
3274;SDS011;1649;53.672;10.064;2023-02-26T03:48:33;6.47;;;2.78;;
3274;SDS011;1649;53.672;10.064;2023-02-26T03:51:02;7.28;;;3.13;;
3274;SDS011;1649;53.672;10.064;2023-02-26T03:53:39;4.57;;;2.75;;
3274;SDS011;1649;53.672;10.064;2023-02-26T03:56:28;5.82;;;3.20;;
3274;SDS011;1649;53.672;10.064;2023-02-26T03:58:58;7.90;;;3.88;;
3274;SDS011;1649;53.672;10.064;2023-02-26T04:01:25;8.70;;;4.77;;
3274;SDS011;1649;53.672;10.064;2023-02-26T04:03:58;7.03;;;3.40;;
3274;SDS011;1649;53.672;10.064;2023-02-26T04:06:28;8.27;;;3.83;;
3274;SDS011;1649;53.672;10.064;2023-02-26T04:08:54;7.90;;;4.57;;
3274;SDS011;1649;53.672;10.064;2023-02-26T04:11:21;8.83;;;4.47;;
3274;SDS011;1649;53.672;10.064;2023-02-26T04:13:49;8.52;;;4.82;;
3274;SDS011;1649;53.672;10.064;2023-02-26T04:16:15;9.77;;;4.67;;
3274;SDS011;1649;53.672;10.064;2023-02-26T04:18:41;15.15;;;3.80;;
3274;SDS011;1649;53.672;10.064;2023-02-26T04:21:09;8.40;;;3.50;;
3274;SDS011;1649;53.672;10.064;2023-02-26T04:23:36;9.55;;;3.05;;
3274;SDS011;1649;53.672;10.064;2023-02-26T04:26:02;5.27;;;3.07;;
3274;SDS011;1649;53.672;10.064;2023-02-26T04:28:28;7.67;;;2.80;;
3274;SDS011;1649;53.672;10.064;2023-02-26T04:30:54;5.90;;;2.45;;
3274;SDS011;1649;53.672;10.064;2023-02-26T04:33:19;6.37;;;2.63;;
3274;SDS011;1649;53.672;10.064;2023-02-26T04:35:45;4.78;;;2.00;;
3274;SDS011;1649;53.672;10.064;2023-02-26T04:38:11;5.27;;;2.67;;
3274;SDS011;1649;53.672;10.064;2023-02-26T04:40:36;8.30;;;2.37;;
3274;SDS011;1649;53.672;10.064;2023-02-26T04:43:02;6.40;;;2.17;;
3274;SDS011;1649;53.672;10.064;2023-02-26T04:45:28;4.55;;;2.60;;
3274;SDS011;1649;53.672;10.064;2023-02-26T04:47:54;6.77;;;2.23;;
3274;SDS011;1649;53.672;10.064;2023-02-26T04:50:19;7.13;;;2.60;;
3274;SDS011;1649;53.672;10.064;2023-02-26T04:52:45;6.03;;;2.40;;
3274;SDS011;1649;53.672;10.064;2023-02-26T04:55:10;7.20;;;2.70;;
3274;SDS011;1649;53.672;10.064;2023-02-26T04:57:36;4.70;;;3.00;;
3274;SDS011;1649;53.672;10.064;2023-02-26T05:00:02;6.07;;;3.30;;
3274;SDS011;1649;53.672;10.064;2023-02-26T05:02:31;5.65;;;2.70;;
3274;SDS011;1649;53.672;10.064;2023-02-26T05:04:56;4.77;;;2.80;;
3274;SDS011;1649;53.672;10.064;2023-02-26T05:07:22;7.27;;;3.10;;
3274;SDS011;1649;53.672;10.064;2023-02-26T05:09:47;4.60;;;2.63;;
3274;SDS011;1649;53.672;10.064;2023-02-26T05:12:13;4.63;;;2.40;;
3274;SDS011;1649;53.672;10.064;2023-02-26T05:14:38;5.40;;;3.50;;
3274;SDS011;1649;53.672;10.064;2023-02-26T05:17:04;6.10;;;2.67;;
3274;SDS011;1649;53.672;10.064;2023-02-26T05:19:29;8.93;;;2.80;;
3274;SDS011;1649;53.672;10.064;2023-02-26T05:21:55;4.53;;;2.47;;
3274;SDS011;1649;53.672;10.064;2023-02-26T05:24:20;6.00;;;3.20;;
3274;SDS011;1649;53.672;10.064;2023-02-26T05:26:46;4.70;;;2.97;;
3274;SDS011;1649;53.672;10.064;2023-02-26T05:29:11;4.03;;;2.43;;
3274;SDS011;1649;53.672;10.064;2023-02-26T05:31:37;7.10;;;2.43;;
3274;SDS011;1649;53.672;10.064;2023-02-26T05:34:02;10.53;;;2.73;;
3274;SDS011;1649;53.672;10.064;2023-02-26T05:36:28;5.33;;;3.00;;
3274;SDS011;1649;53.672;10.064;2023-02-26T05:38:53;7.00;;;2.87;;
3274;SDS011;1649;53.672;10.064;2023-02-26T05:41:19;8.13;;;3.20;;
3274;SDS011;1649;53.672;10.064;2023-02-26T05:43:44;7.53;;;3.50;;
3274;SDS011;1649;53.672;10.064;2023-02-26T05:46:10;7.07;;;3.97;;
3274;SDS011;1649;53.672;10.064;2023-02-26T05:48:35;5.40;;;2.87;;
3274;SDS011;1649;53.672;10.064;2023-02-26T05:51:01;9.00;;;3.70;;
3274;SDS011;1649;53.672;10.064;2023-02-26T05:53:26;5.20;;;2.87;;
3274;SDS011;1649;53.672;10.064;2023-02-26T05:55:52;6.53;;;2.77;;
3274;SDS011;1649;53.672;10.064;2023-02-26T05:58:18;4.90;;;3.37;;
3274;SDS011;1649;53.672;10.064;2023-02-26T06:00:44;5.30;;;3.00;;
3274;SDS011;1649;53.672;10.064;2023-02-26T06:03:09;5.10;;;3.00;;
3274;SDS011;1649;53.672;10.064;2023-02-26T06:05:35;4.97;;;2.40;;
3274;SDS011;1649;53.672;10.064;2023-02-26T06:08:01;4.63;;;2.20;;
3274;SDS011;1649;53.672;10.064;2023-02-26T06:10:27;10.30;;;2.63;;
3274;SDS011;1649;53.672;10.064;2023-02-26T06:12:53;6.20;;;2.50;;
3274;SDS011;1649;53.672;10.064;2023-02-26T06:15:18;5.63;;;2.40;;
3274;SDS011;1649;53.672;10.064;2023-02-26T06:17:44;7.10;;;2.13;;
3274;SDS011;1649;53.672;10.064;2023-02-26T06:20:09;4.37;;;2.17;;
3274;SDS011;1649;53.672;10.064;2023-02-26T06:22:36;5.50;;;2.65;;
3274;SDS011;1649;53.672;10.064;2023-02-26T06:25:02;6.70;;;2.27;;
3274;SDS011;1649;53.672;10.064;2023-02-26T06:27:28;6.70;;;2.80;;
3274;SDS011;1649;53.672;10.064;2023-02-26T06:29:53;5.27;;;2.40;;
3274;SDS011;1649;53.672;10.064;2023-02-26T06:32:19;4.30;;;1.97;;
3274;SDS011;1649;53.672;10.064;2023-02-26T06:34:44;4.70;;;2.37;;
3274;SDS011;1649;53.672;10.064;2023-02-26T06:37:10;4.33;;;2.10;;
3274;SDS011;1649;53.672;10.064;2023-02-26T06:39:35;6.00;;;2.70;;
3274;SDS011;1649;53.672;10.064;2023-02-26T06:42:01;3.83;;;2.10;;
3274;SDS011;1649;53.672;10.064;2023-02-26T06:44:26;4.43;;;2.53;;
3274;SDS011;1649;53.672;10.064;2023-02-26T06:46:52;8.47;;;2.63;;
3274;SDS011;1649;53.672;10.064;2023-02-26T06:49:17;6.30;;;2.80;;
3274;SDS011;1649;53.672;10.064;2023-02-26T06:51:43;5.30;;;2.30;;
3274;SDS011;1649;53.672;10.064;2023-02-26T06:54:08;4.30;;;2.00;;
3274;SDS011;1649;53.672;10.064;2023-02-26T06:56:34;4.00;;;2.10;;
3274;SDS011;1649;53.672;10.064;2023-02-26T06:58:59;6.20;;;2.67;;
3274;SDS011;1649;53.672;10.064;2023-02-26T07:01:25;4.53;;;2.40;;
3274;SDS011;1649;53.672;10.064;2023-02-26T07:03:51;6.50;;;2.87;;
3274;SDS011;1649;53.672;10.064;2023-02-26T07:06:16;4.27;;;2.43;;
3274;SDS011;1649;53.672;10.064;2023-02-26T07:08:42;5.45;;;2.83;;
3274;SDS011;1649;53.672;10.064;2023-02-26T07:11:08;6.67;;;2.70;;
3274;SDS011;1649;53.672;10.064;2023-02-26T07:13:34;5.33;;;2.53;;
3274;SDS011;1649;53.672;10.064;2023-02-26T07:16:01;7.22;;;2.70;;
3274;SDS011;1649;53.672;10.064;2023-02-26T07:18:27;4.88;;;2.33;;
3274;SDS011;1649;53.672;10.064;2023-02-26T07:20:52;5.20;;;2.80;;
3274;SDS011;1649;53.672;10.064;2023-02-26T07:23:18;6.93;;;2.80;;
3274;SDS011;1649;53.672;10.064;2023-02-26T07:25:43;4.70;;;2.23;;
3274;SDS011;1649;53.672;10.064;2023-02-26T07:28:09;5.47;;;3.23;;
3274;SDS011;1649;53.672;10.064;2023-02-26T07:30:35;6.70;;;2.50;;
3274;SDS011;1649;53.672;10.064;2023-02-26T07:33:00;5.80;;;2.53;;
3274;SDS011;1649;53.672;10.064;2023-02-26T07:35:26;6.73;;;2.33;;
3274;SDS011;1649;53.672;10.064;2023-02-26T07:37:51;6.90;;;2.80;;
3274;SDS011;1649;53.672;10.064;2023-02-26T07:40:17;4.73;;;1.93;;
3274;SDS011;1649;53.672;10.064;2023-02-26T07:42:43;7.80;;;2.67;;
3274;SDS011;1649;53.672;10.064;2023-02-26T07:45:08;4.70;;;2.20;;
3274;SDS011;1649;53.672;10.064;2023-02-26T07:47:34;4.37;;;1.87;;
3274;SDS011;1649;53.672;10.064;2023-02-26T07:50:00;5.43;;;2.40;;
3274;SDS011;1649;53.672;10.064;2023-02-26T07:52:26;6.80;;;2.10;;
3274;SDS011;1649;53.672;10.064;2023-02-26T07:54:52;7.77;;;2.40;;
3274;SDS011;1649;53.672;10.064;2023-02-26T07:57:18;7.33;;;2.30;;
3274;SDS011;1649;53.672;10.064;2023-02-26T07:59:44;5.93;;;2.60;;
3274;SDS011;1649;53.672;10.064;2023-02-26T08:02:10;5.20;;;2.27;;
3274;SDS011;1649;53.672;10.064;2023-02-26T08:04:36;6.70;;;2.53;;
3274;SDS011;1649;53.672;10.064;2023-02-26T08:07:02;4.17;;;1.97;;
3274;SDS011;1649;53.672;10.064;2023-02-26T08:09:28;5.57;;;2.50;;
3274;SDS011;1649;53.672;10.064;2023-02-26T08:11:54;5.20;;;2.43;;
3274;SDS011;1649;53.672;10.064;2023-02-26T08:14:20;6.60;;;2.03;;
3274;SDS011;1649;53.672;10.064;2023-02-26T08:16:45;5.20;;;2.27;;
3274;SDS011;1649;53.672;10.064;2023-02-26T08:19:11;4.77;;;2.33;;
3274;SDS011;1649;53.672;10.064;2023-02-26T08:21:36;5.53;;;2.50;;
3274;SDS011;1649;53.672;10.064;2023-02-26T08:24:02;4.30;;;2.10;;
3274;SDS011;1649;53.672;10.064;2023-02-26T08:26:27;8.70;;;2.10;;
3274;SDS011;1649;53.672;10.064;2023-02-26T08:28:53;7.93;;;2.27;;
3274;SDS011;1649;53.672;10.064;2023-02-26T08:31:18;4.43;;;2.10;;
3274;SDS011;1649;53.672;10.064;2023-02-26T08:33:44;4.50;;;2.03;;
3274;SDS011;1649;53.672;10.064;2023-02-26T08:36:10;5.57;;;1.70;;
3274;SDS011;1649;53.672;10.064;2023-02-26T08:38:35;3.73;;;2.00;;
3274;SDS011;1649;53.672;10.064;2023-02-26T08:41:01;4.70;;;2.00;;
3274;SDS011;1649;53.672;10.064;2023-02-26T08:43:27;5.53;;;1.90;;
3274;SDS011;1649;53.672;10.064;2023-02-26T08:45:54;3.97;;;1.50;;
3274;SDS011;1649;53.672;10.064;2023-02-26T08:48:20;5.33;;;1.80;;
3274;SDS011;1649;53.672;10.064;2023-02-26T08:50:47;5.20;;;1.70;;
3274;SDS011;1649;53.672;10.064;2023-02-26T08:53:12;5.07;;;1.60;;
3274;SDS011;1649;53.672;10.064;2023-02-26T08:55:38;3.60;;;1.40;;
3274;SDS011;1649;53.672;10.064;2023-02-26T08:58:03;5.20;;;1.60;;
3274;SDS011;1649;53.672;10.064;2023-02-26T09:00:29;6.17;;;1.77;;
3274;SDS011;1649;53.672;10.064;2023-02-26T09:02:55;5.80;;;2.10;;
3274;SDS011;1649;53.672;10.064;2023-02-26T09:05:20;5.30;;;2.53;;
3274;SDS011;1649;53.672;10.064;2023-02-26T09:07:46;6.50;;;2.47;;
3274;SDS011;1649;53.672;10.064;2023-02-26T09:10:12;4.60;;;1.30;;
3274;SDS011;1649;53.672;10.064;2023-02-26T09:12:39;7.33;;;2.57;;
3274;SDS011;1649;53.672;10.064;2023-02-26T09:15:05;6.73;;;3.17;;
3274;SDS011;1649;53.672;10.064;2023-02-26T09:17:32;4.70;;;2.07;;
3274;SDS011;1649;53.672;10.064;2023-02-26T09:19:57;4.83;;;1.53;;
3274;SDS011;1649;53.672;10.064;2023-02-26T09:22:23;4.37;;;1.50;;
3274;SDS011;1649;53.672;10.064;2023-02-26T09:24:49;5.63;;;2.43;;
3274;SDS011;1649;53.672;10.064;2023-02-26T09:27:14;4.40;;;1.33;;
3274;SDS011;1649;53.672;10.064;2023-02-26T09:29:40;4.20;;;1.30;;
3274;SDS011;1649;53.672;10.064;2023-02-26T09:32:06;5.50;;;1.93;;
3274;SDS011;1649;53.672;10.064;2023-02-26T09:34:35;4.93;;;1.53;;
3274;SDS011;1649;53.672;10.064;2023-02-26T09:37:02;4.20;;;1.70;;
3274;SDS011;1649;53.672;10.064;2023-02-26T09:39:29;4.03;;;1.40;;
3274;SDS011;1649;53.672;10.064;2023-02-26T09:41:55;6.50;;;2.07;;
3274;SDS011;1649;53.672;10.064;2023-02-26T09:44:26;4.23;;;1.63;;
3274;SDS011;1649;53.672;10.064;2023-02-26T09:47:11;5.47;;;1.70;;
3274;SDS011;1649;53.672;10.064;2023-02-26T09:52:26;5.07;;;1.80;;
3274;SDS011;1649;53.672;10.064;2023-02-26T09:55:00;4.10;;;1.40;;
3274;SDS011;1649;53.672;10.064;2023-02-26T09:57:33;3.90;;;1.17;;
3274;SDS011;1649;53.672;10.064;2023-02-26T10:00:05;5.40;;;1.70;;
3274;SDS011;1649;53.672;10.064;2023-02-26T10:02:48;4.00;;;1.30;;
3274;SDS011;1649;53.672;10.064;2023-02-26T10:05:25;5.47;;;1.43;;
3274;SDS011;1649;53.672;10.064;2023-02-26T10:08:13;4.17;;;1.37;;
3274;SDS011;1649;53.672;10.064;2023-02-26T10:13:36;4.73;;;1.30;;
3274;SDS011;1649;53.672;10.064;2023-02-26T10:16:21;3.40;;;1.13;;
3274;SDS011;1649;53.672;10.064;2023-02-26T10:18:58;3.47;;;1.33;;
3274;SDS011;1649;53.672;10.064;2023-02-26T10:21:33;3.77;;;1.10;;
3274;SDS011;1649;53.672;10.064;2023-02-26T10:24:17;4.30;;;1.40;;
3274;SDS011;1649;53.672;10.064;2023-02-26T10:26:53;3.53;;;1.30;;
3274;SDS011;1649;53.672;10.064;2023-02-26T10:35:03;4.50;;;1.60;;
3274;SDS011;1649;53.672;10.064;2023-02-26T10:37:44;7.17;;;1.60;;
3274;SDS011;1649;53.672;10.064;2023-02-26T10:40:17;5.37;;;1.63;;
3274;SDS011;1649;53.672;10.064;2023-02-26T10:42:57;4.80;;;1.70;;
3274;SDS011;1649;53.672;10.064;2023-02-26T10:50:55;4.27;;;1.60;;
3274;SDS011;1649;53.672;10.064;2023-02-26T10:53:23;6.37;;;1.90;;
3274;SDS011;1649;53.672;10.064;2023-02-26T10:55:51;4.90;;;1.43;;
3274;SDS011;1649;53.672;10.064;2023-02-26T10:58:30;4.27;;;1.80;;
3274;SDS011;1649;53.672;10.064;2023-02-26T11:00:56;7.60;;;1.57;;
3274;SDS011;1649;53.672;10.064;2023-02-26T11:05:58;4.20;;;1.80;;
3274;SDS011;1649;53.672;10.064;2023-02-26T11:08:29;5.13;;;1.60;;
3274;SDS011;1649;53.672;10.064;2023-02-26T11:10:58;6.63;;;1.47;;
3274;SDS011;1649;53.672;10.064;2023-02-26T11:13:26;6.67;;;1.70;;
3274;SDS011;1649;53.672;10.064;2023-02-26T11:15:54;4.20;;;1.40;;
3274;SDS011;1649;53.672;10.064;2023-02-26T11:18:24;4.80;;;1.70;;
3274;SDS011;1649;53.672;10.064;2023-02-26T11:20:57;4.97;;;1.57;;
3274;SDS011;1649;53.672;10.064;2023-02-26T11:23:25;7.13;;;1.90;;
3274;SDS011;1649;53.672;10.064;2023-02-26T11:26:07;6.77;;;1.57;;
3274;SDS011;1649;53.672;10.064;2023-02-26T11:28:43;5.20;;;1.50;;
3274;SDS011;1649;53.672;10.064;2023-02-26T11:31:10;7.13;;;1.90;;
3274;SDS011;1649;53.672;10.064;2023-02-26T11:33:44;4.17;;;1.50;;
3274;SDS011;1649;53.672;10.064;2023-02-26T11:36:20;5.47;;;2.30;;
3274;SDS011;1649;53.672;10.064;2023-02-26T11:38:57;5.63;;;1.60;;
3274;SDS011;1649;53.672;10.064;2023-02-26T11:41:34;5.23;;;1.80;;
3274;SDS011;1649;53.672;10.064;2023-02-26T11:44:04;4.10;;;1.60;;
3274;SDS011;1649;53.672;10.064;2023-02-26T11:46:35;8.30;;;1.60;;
3274;SDS011;1649;53.672;10.064;2023-02-26T11:49:05;4.43;;;2.00;;
3274;SDS011;1649;53.672;10.064;2023-02-26T11:51:32;5.67;;;1.93;;
3274;SDS011;1649;53.672;10.064;2023-02-26T11:53:58;5.03;;;1.77;;
3274;SDS011;1649;53.672;10.064;2023-02-26T11:56:28;4.13;;;2.13;;
3274;SDS011;1649;53.672;10.064;2023-02-26T11:59:07;4.00;;;1.70;;
3274;SDS011;1649;53.672;10.064;2023-02-26T12:01:41;4.47;;;2.00;;
3274;SDS011;1649;53.672;10.064;2023-02-26T12:04:08;4.23;;;1.90;;
3274;SDS011;1649;53.672;10.064;2023-02-26T12:06:36;4.70;;;1.90;;
3274;SDS011;1649;53.672;10.064;2023-02-26T12:09:01;6.23;;;2.00;;
3274;SDS011;1649;53.672;10.064;2023-02-26T12:11:47;4.70;;;1.77;;
3274;SDS011;1649;53.672;10.064;2023-02-26T12:34:35;4.13;;;1.70;;
3274;SDS011;1649;53.672;10.064;2023-02-26T12:43:10;3.67;;;1.70;;
3274;SDS011;1649;53.672;10.064;2023-02-26T12:46:01;4.50;;;2.10;;
3274;SDS011;1649;53.672;10.064;2023-02-26T12:48:54;5.23;;;1.83;;
3274;SDS011;1649;53.672;10.064;2023-02-26T12:54:13;4.13;;;1.50;;
3274;SDS011;1649;53.672;10.064;2023-02-26T12:57:03;4.63;;;1.70;;
3274;SDS011;1649;53.672;10.064;2023-02-26T13:08:14;5.67;;;1.50;;
3274;SDS011;1649;53.672;10.064;2023-02-26T13:10:53;4.60;;;1.83;;
3274;SDS011;1649;53.672;10.064;2023-02-26T13:16:32;4.90;;;1.83;;
3274;SDS011;1649;53.672;10.064;2023-02-26T13:19:10;4.40;;;2.07;;
3274;SDS011;1649;53.672;10.064;2023-02-26T13:21:41;10.47;;;3.57;;
3274;SDS011;1649;53.672;10.064;2023-02-26T13:27:00;12.40;;;4.70;;
3274;SDS011;1649;53.672;10.064;2023-02-26T13:29:31;10.50;;;3.50;;
3274;SDS011;1649;53.672;10.064;2023-02-26T13:32:06;7.30;;;3.13;;
3274;SDS011;1649;53.672;10.064;2023-02-26T13:34:58;6.50;;;2.70;;
3274;SDS011;1649;53.672;10.064;2023-02-26T13:37:30;6.30;;;2.50;;
3274;SDS011;1649;53.672;10.064;2023-02-26T13:43:16;7.50;;;3.33;;
3274;SDS011;1649;53.672;10.064;2023-02-26T13:45:55;5.70;;;1.83;;
3274;SDS011;1649;53.672;10.064;2023-02-26T13:51:34;6.03;;;2.33;;
3274;SDS011;1649;53.672;10.064;2023-02-26T13:54:06;8.07;;;2.50;;
3274;SDS011;1649;53.672;10.064;2023-02-26T14:01:52;5.37;;;1.87;;
3274;SDS011;1649;53.672;10.064;2023-02-26T14:06:54;5.23;;;1.80;;
3274;SDS011;1649;53.672;10.064;2023-02-26T14:09:54;4.47;;;1.67;;
3274;SDS011;1649;53.672;10.064;2023-02-26T14:17:38;4.87;;;1.70;;
3274;SDS011;1649;53.672;10.064;2023-02-26T14:22:45;11.77;;;1.97;;
3274;SDS011;1649;53.672;10.064;2023-02-26T14:27:42;4.53;;;1.80;;
3274;SDS011;1649;53.672;10.064;2023-02-26T14:32:48;8.27;;;1.87;;
3274;SDS011;1649;53.672;10.064;2023-02-26T14:35:24;5.63;;;1.80;;
3274;SDS011;1649;53.672;10.064;2023-02-26T14:37:58;6.00;;;2.37;;
3274;SDS011;1649;53.672;10.064;2023-02-26T14:40:36;7.63;;;2.13;;
3274;SDS011;1649;53.672;10.064;2023-02-26T14:43:20;5.13;;;1.77;;
3274;SDS011;1649;53.672;10.064;2023-02-26T14:45:53;9.70;;;3.33;;
3274;SDS011;1649;53.672;10.064;2023-02-26T14:48:20;6.00;;;2.63;;
3274;SDS011;1649;53.672;10.064;2023-02-26T14:53:45;6.53;;;1.83;;
3274;SDS011;1649;53.672;10.064;2023-02-26T15:04:31;4.90;;;1.60;;
3274;SDS011;1649;53.672;10.064;2023-02-26T15:12:38;5.60;;;1.90;;
3274;SDS011;1649;53.672;10.064;2023-02-26T15:18:32;5.10;;;1.73;;
3274;SDS011;1649;53.672;10.064;2023-02-26T15:24:23;8.87;;;1.97;;
3274;SDS011;1649;53.672;10.064;2023-02-26T15:26:52;6.90;;;2.00;;
3274;SDS011;1649;53.672;10.064;2023-02-26T15:29:23;4.30;;;1.70;;
3274;SDS011;1649;53.672;10.064;2023-02-26T15:31:54;4.80;;;2.10;;
3274;SDS011;1649;53.672;10.064;2023-02-26T15:34:22;5.77;;;1.87;;
3274;SDS011;1649;53.672;10.064;2023-02-26T15:36:48;4.00;;;1.63;;
3274;SDS011;1649;53.672;10.064;2023-02-26T15:39:16;6.10;;;2.60;;
3274;SDS011;1649;53.672;10.064;2023-02-26T15:41:44;5.80;;;2.03;;
3274;SDS011;1649;53.672;10.064;2023-02-26T15:44:16;4.17;;;2.23;;
3274;SDS011;1649;53.672;10.064;2023-02-26T15:46:46;6.63;;;2.40;;
3274;SDS011;1649;53.672;10.064;2023-02-26T15:49:23;5.90;;;2.10;;
3274;SDS011;1649;53.672;10.064;2023-02-26T15:52:01;5.60;;;1.70;;
3274;SDS011;1649;53.672;10.064;2023-02-26T15:54:32;8.53;;;2.43;;
3274;SDS011;1649;53.672;10.064;2023-02-26T15:57:02;4.90;;;2.00;;
3274;SDS011;1649;53.672;10.064;2023-02-26T15:59:29;5.40;;;2.30;;
3274;SDS011;1649;53.672;10.064;2023-02-26T16:01:56;4.30;;;2.07;;
3274;SDS011;1649;53.672;10.064;2023-02-26T16:04:22;5.33;;;1.73;;
3274;SDS011;1649;53.672;10.064;2023-02-26T16:06:49;3.67;;;1.73;;
3274;SDS011;1649;53.672;10.064;2023-02-26T16:09:19;4.17;;;1.77;;
3274;SDS011;1649;53.672;10.064;2023-02-26T16:11:54;6.00;;;1.97;;
3274;SDS011;1649;53.672;10.064;2023-02-26T16:14:30;7.50;;;1.57;;
3274;SDS011;1649;53.672;10.064;2023-02-26T16:17:02;5.40;;;2.07;;
3274;SDS011;1649;53.672;10.064;2023-02-26T16:19:33;4.23;;;1.53;;
3274;SDS011;1649;53.672;10.064;2023-02-26T16:22:07;5.73;;;2.43;;
3274;SDS011;1649;53.672;10.064;2023-02-26T16:24:50;7.20;;;1.50;;
3274;SDS011;1649;53.672;10.064;2023-02-26T16:27:19;5.80;;;1.93;;
3274;SDS011;1649;53.672;10.064;2023-02-26T16:29:51;4.00;;;2.03;;
3274;SDS011;1649;53.672;10.064;2023-02-26T16:32:19;7.50;;;1.73;;
3274;SDS011;1649;53.672;10.064;2023-02-26T16:34:49;5.90;;;2.07;;
3274;SDS011;1649;53.672;10.064;2023-02-26T16:37:22;7.83;;;1.83;;
3274;SDS011;1649;53.672;10.064;2023-02-26T16:45:01;3.93;;;1.37;;
3274;SDS011;1649;53.672;10.064;2023-02-26T16:47:36;4.23;;;1.57;;
3274;SDS011;1649;53.672;10.064;2023-02-26T16:50:04;4.47;;;1.43;;
3274;SDS011;1649;53.672;10.064;2023-02-26T16:52:37;8.43;;;2.00;;
3274;SDS011;1649;53.672;10.064;2023-02-26T16:55:03;4.47;;;1.63;;
3274;SDS011;1649;53.672;10.064;2023-02-26T16:57:35;4.87;;;2.07;;
3274;SDS011;1649;53.672;10.064;2023-02-26T17:00:10;6.13;;;1.93;;
3274;SDS011;1649;53.672;10.064;2023-02-26T17:02:41;4.00;;;2.03;;
3274;SDS011;1649;53.672;10.064;2023-02-26T17:05:23;5.90;;;2.10;;
3274;SDS011;1649;53.672;10.064;2023-02-26T17:10:49;7.30;;;2.13;;
3274;SDS011;1649;53.672;10.064;2023-02-26T17:13:25;6.20;;;1.97;;
3274;SDS011;1649;53.672;10.064;2023-02-26T17:15:52;7.63;;;2.17;;
3274;SDS011;1649;53.672;10.064;2023-02-26T17:18:21;3.60;;;1.70;;
3274;SDS011;1649;53.672;10.064;2023-02-26T17:20:47;3.93;;;2.00;;
3274;SDS011;1649;53.672;10.064;2023-02-26T17:23:13;8.90;;;5.47;;
3274;SDS011;1649;53.672;10.064;2023-02-26T17:25:42;7.73;;;3.63;;
3274;SDS011;1649;53.672;10.064;2023-02-26T17:28:14;6.10;;;3.53;;
3274;SDS011;1649;53.672;10.064;2023-02-26T17:30:46;8.07;;;4.00;;
3274;SDS011;1649;53.672;10.064;2023-02-26T17:33:12;8.70;;;3.23;;
3274;SDS011;1649;53.672;10.064;2023-02-26T17:35:38;7.70;;;3.90;;
3274;SDS011;1649;53.672;10.064;2023-02-26T17:38:04;6.93;;;3.67;;
3274;SDS011;1649;53.672;10.064;2023-02-26T17:40:32;10.43;;;5.10;;